Impacts TAF Board
For situational awareness. Not to be used for flight planning purposes.
IDs:

KLMT - Klamath Falls Intl, OR, US

Issued at 2320 UTC 05 Dec 2019
Updated at 0107 UTC 06 Dec 2019
Potential Impact None Slight Moderate High
Time0053Z 06/02Z 06/03Z 06/04Z 06/05Z 06/06Z 06/07Z 06/08Z 06/09Z 06/10Z 06/11Z 06/12Z 06/13Z 06/14Z>>
Type OBS PRVL PRVL PRVL PRVL PRVL PRVL PRVL PRVL PRVL PRVL PRVL PRVL PRVL
VIS 6 >6 >6 >6 >6 >6 >6 >6 >6 >6 >6 >6 >6 >6
CIG 35 40 50 50 50 50 50 50 50 50 50 50 50 50
Cover BKN BKN OVC OVC OVC OVC OVC OVC OVC OVC OVC OVC OVC OVC
FltCat VFR VFR VFR VFR VFR VFR VFR VFR VFR VFR VFR VFR VFR VFR
WX BR -- -- -- -- -- -- -- -- -- -- -- -- --
WDir 320 VRB 140 140 140 140 140 140 140 140 140 150 150 150
WSpd 4 3 8 8 8 8 8 8 8 8 8 12 12 12
WGst -- -- -- -- -- -- -- -- -- -- -- 20 20 20
Raw TAF
KLMT 052320Z 0600/0624 VRB03KT P6SM BKN040
  FM060300 14008KT P6SM OVC050
  FM061200 15012G20KT P6SM OVC050
  FM061800 16014G25KT P6SM OVC040


Raw METAR
KLMT 060053Z 32004KT 6SM BR BKN035 02/01 A3004 RMK AO2 SLP186 T00170006
KLMT 052353Z AUTO 34005KT 5SM BR OVC035 03/01 A3005 RMK AO2 SLP188 6//// T00280011 10028 20000 56007
KLMT 052300Z 34009KT 7SM OVC036 03/01 A3006 RMK AO2 T00280011
KLMT 052253Z 33009KT 5SM BR OVC015 02/01 A3006 RMK AO2 SLP192 T00220011
KLMT 052238Z 33009KT 7SM SCT005 OVC036 02/01 A3006 RMK AO2 T00220006

METAR Board
Radar Display
Forecast Discussion
For situational awareness. Not to be used for flight planning purposes.